createdAt,value
2019-05-30T00:06:33.818Z,13.09
2019-05-30T00:09:00.894Z,13.11
2019-05-30T00:11:27.653Z,13.11
2019-05-30T00:13:54.702Z,13.12
2019-05-30T00:57:21.238Z,13.01
2019-05-30T00:59:48.072Z,13.02
2019-05-30T01:02:14.999Z,13.00
2019-05-30T01:04:51.753Z,13.00
2019-05-30T01:07:18.444Z,12.99
2019-05-30T01:09:45.392Z,13.00
2019-05-30T01:12:12.998Z,13.00
2019-05-30T01:14:47.702Z,13.00
2019-05-30T01:17:14.285Z,13.01
2019-05-30T01:19:41.115Z,13.00
2019-05-30T01:22:08.392Z,12.97
2019-05-30T01:24:47.767Z,12.99
2019-05-30T01:31:16.951Z,12.99
2019-05-30T01:33:43.783Z,12.96
2019-05-30T01:36:11.406Z,12.92
2019-05-30T01:38:45.028Z,12.94
2019-05-30T01:41:54.648Z,12.90
2019-05-30T01:44:21.120Z,12.87
2019-05-30T01:46:47.692Z,12.88
2019-05-30T01:49:27.869Z,12.89
2019-05-30T01:52:13.296Z,12.89
2019-05-30T01:54:40.005Z,12.89
2019-05-30T01:57:06.815Z,12.83
2019-05-30T01:59:33.566Z,12.81
2019-05-30T02:02:00.889Z,12.80
2019-05-30T02:04:27.793Z,12.79
2019-05-30T02:06:54.358Z,12.78
2019-05-30T02:09:21.031Z,12.76
2019-05-30T02:11:47.854Z,12.79
2019-05-30T02:14:14.440Z,12.76
2019-05-30T02:16:41.144Z,12.76
2019-05-30T02:19:10.584Z,12.75
2019-05-30T02:21:37.316Z,12.77
2019-05-30T02:24:04.058Z,12.77
2019-05-30T02:26:30.814Z,12.70
2019-05-30T02:28:57.886Z,12.72
2019-05-30T02:31:38.346Z,12.72
2019-05-30T02:33:52.961Z,12.74
2019-05-30T02:36:19.524Z,12.75
2019-05-30T02:38:46.277Z,12.73
2019-05-30T02:41:13.036Z,12.72
2019-05-30T02:47:22.642Z,12.71
2019-05-30T02:49:49.458Z,12.70
2019-05-30T02:52:16.295Z,12.67
2019-05-30T02:54:49.755Z,12.66
2019-05-30T02:57:16.299Z,12.63
2019-05-30T02:59:42.933Z,12.60
2019-05-30T03:02:28.348Z,12.62
2019-05-30T03:04:55.065Z,12.61
2019-05-30T03:08:03.982Z,12.61
2019-05-30T05:01:56.609Z,11.93
2019-05-30T05:04:23.311Z,11.88
2019-05-30T05:06:49.948Z,11.92
2019-05-30T05:09:17.980Z,11.77
2019-05-30T05:11:44.942Z,11.88
2019-05-30T05:14:12.314Z,11.88
2019-05-30T05:16:39.076Z,11.96
2019-05-30T05:19:05.833Z,11.98
2019-05-30T05:21:32.448Z,12.00
2019-05-30T05:23:59.285Z,12.05
2019-05-30T05:26:25.896Z,12.12
2019-05-30T05:28:52.545Z,12.11
2019-05-30T05:31:20.316Z,12.09
2019-05-30T05:33:56.667Z,12.11
2019-05-30T05:36:16.850Z,12.07
2019-05-30T05:38:43.834Z,12.02
2019-05-30T05:41:10.500Z,12.09
2019-05-30T05:43:37.321Z,12.13
2019-05-30T05:46:04.128Z,12.15
2019-05-30T05:48:30.866Z,12.16
2019-05-30T05:50:57.629Z,12.12
2019-05-30T05:53:25.147Z,12.22
2019-05-30T05:55:51.976Z,12.24
2019-05-30T05:58:19.151Z,12.16
2019-05-30T06:00:45.929Z,12.14
2019-05-30T06:03:12.513Z,12.20
2019-05-30T06:05:52.228Z,12.27
2019-05-30T06:08:07.851Z,12.26
2019-05-30T06:10:34.698Z,12.33
2019-05-30T06:13:01.410Z,12.31
2019-05-30T06:15:29.038Z,12.33
2019-05-30T06:17:55.734Z,12.34
2019-05-30T06:20:23.344Z,12.33
2019-05-30T06:22:50.110Z,12.34
2019-05-30T06:25:19.034Z,12.27
2019-05-30T06:27:46.486Z,12.35
2019-05-30T06:30:13.380Z,12.40
2019-05-30T06:32:40.524Z,12.43
2019-05-30T06:35:07.864Z,12.46
2019-05-30T06:37:34.755Z,12.48
2019-05-30T06:40:01.410Z,12.35
2019-05-30T06:42:28.290Z,12.40
2019-05-30T06:44:55.152Z,12.39
2019-05-30T06:47:22.200Z,12.22
2019-05-30T06:49:49.095Z,12.26
2019-05-30T06:52:16.117Z,12.36
2019-05-30T06:54:42.847Z,12.40
2019-05-30T06:57:09.589Z,12.32
2019-05-30T06:59:36.116Z,12.35
2019-05-30T07:02:03.186Z,12.26
2019-05-30T07:04:48.986Z,12.32
2019-05-30T07:06:58.906Z,12.31
2019-05-30T07:09:26.795Z,12.45
2019-05-30T07:11:53.893Z,12.43
2019-05-30T07:14:20.974Z,12.50
2019-05-30T07:16:47.712Z,12.53
2019-05-30T07:19:14.250Z,12.54
2019-05-30T07:21:41.071Z,12.49
2019-05-30T07:24:07.806Z,12.56
2019-05-30T07:26:34.436Z,12.56
2019-05-30T07:29:01.105Z,12.56
2019-05-30T07:31:28.383Z,12.52
2019-05-30T07:33:55.032Z,12.50
2019-05-30T07:36:21.782Z,12.51
2019-05-30T07:38:48.549Z,12.55
2019-05-30T07:41:15.182Z,12.56
2019-05-30T07:43:41.796Z,12.52
2019-05-30T07:46:08.711Z,12.45
2019-05-30T07:48:35.378Z,12.45
2019-05-30T07:51:03.968Z,12.47
2019-05-30T07:53:33.432Z,12.44
2019-05-30T07:56:00.051Z,12.41
2019-05-30T07:58:27.049Z,12.35
2019-05-30T08:00:54.026Z,12.24
2019-05-30T08:03:20.678Z,12.28
2019-05-30T08:05:47.363Z,12.26
2019-05-30T08:08:13.986Z,12.23
2019-05-30T08:10:40.657Z,12.23
2019-05-30T08:13:07.245Z,12.21
2019-05-30T08:15:36.266Z,12.21
2019-05-30T08:18:02.730Z,12.23
2019-05-30T08:20:29.728Z,12.24
2019-05-30T08:22:56.459Z,12.22
2019-05-30T08:25:23.040Z,12.11
2019-05-30T08:27:49.817Z,12.15
2019-05-30T08:30:18.842Z,12.29
2019-05-30T08:32:45.411Z,12.39
2019-05-30T08:35:13.277Z,12.41
2019-05-30T08:37:40.224Z,12.54
2019-05-30T08:40:09.491Z,12.62
2019-05-30T08:42:37.925Z,12.65
2019-05-30T08:45:09.456Z,12.62
2019-05-30T08:47:34.581Z,12.53
2019-05-30T08:50:01.545Z,12.62
2019-05-30T08:52:28.267Z,12.61
2019-05-30T08:54:54.902Z,12.77
2019-05-30T08:57:21.537Z,12.93
2019-05-30T08:59:48.006Z,12.97
2019-05-30T09:02:15.442Z,13.02
2019-05-30T09:04:42.056Z,13.08
2019-05-30T09:07:08.763Z,13.11
2019-05-30T09:09:36.091Z,13.09
2019-05-30T09:12:03.403Z,12.86
2019-05-30T09:14:30.231Z,12.79
2019-05-30T09:16:57.162Z,12.89
2019-05-30T09:19:23.718Z,12.80
2019-05-30T09:21:50.702Z,12.85
2019-05-30T09:24:17.567Z,12.76
2019-05-30T09:26:48.356Z,12.90
2019-05-30T09:29:13.077Z,12.82
2019-05-30T09:31:41.156Z,12.79
2019-05-30T09:34:11.983Z,12.67
2019-05-30T09:36:39.411Z,12.81
2019-05-30T09:39:07.373Z,12.82
2019-05-30T09:41:36.586Z,12.94
2019-05-30T09:44:03.848Z,13.02
2019-05-30T09:46:30.572Z,12.96
2019-05-30T09:48:57.304Z,12.82
2019-05-30T09:51:23.949Z,12.95
2019-05-30T09:53:50.532Z,13.18
2019-05-30T09:56:17.101Z,13.00
2019-05-30T09:58:44.041Z,13.21
2019-05-30T10:01:11.091Z,13.36
2019-05-30T10:03:38.733Z,13.28
2019-05-30T10:06:05.504Z,13.32
2019-05-30T10:08:32.067Z,13.33
2019-05-30T10:10:58.998Z,13.41
2019-05-30T10:13:26.360Z,13.50
2019-05-30T10:15:53.322Z,13.49
2019-05-30T10:18:20.106Z,13.17
2019-05-30T10:20:48.147Z,13.23
2019-05-30T10:23:17.922Z,13.33
2019-05-30T10:25:45.953Z,13.29
2019-05-30T10:28:12.926Z,13.36
2019-05-30T10:30:39.774Z,13.34
2019-05-30T10:33:08.175Z,13.16
2019-05-30T10:35:34.997Z,13.09
2019-05-30T10:38:01.880Z,13.17
2019-05-30T10:40:32.113Z,13.07
2019-05-30T10:42:58.220Z,13.22
2019-05-30T10:45:26.717Z,13.16
2019-05-30T10:47:53.791Z,13.28
2019-05-30T10:50:21.182Z,13.36
2019-05-30T10:52:49.293Z,13.21
2019-05-30T10:55:17.840Z,13.11
2019-05-30T10:57:45.187Z,13.01
2019-05-30T11:00:20.102Z,13.08
2019-05-30T11:02:47.836Z,13.09
2019-05-30T11:05:16.735Z,13.11
2019-05-30T11:08:06.260Z,12.90
2019-05-30T11:10:37.719Z,12.85
2019-05-30T11:13:12.346Z,12.88
2019-05-30T11:15:39.287Z,12.85
2019-05-30T11:18:06.182Z,12.81
2019-05-30T11:20:34.160Z,12.84
2019-05-30T11:23:00.900Z,12.81
2019-05-30T11:25:27.653Z,12.77
2019-05-30T11:27:54.817Z,12.73
2019-05-30T11:30:22.048Z,12.76
2019-05-30T11:32:49.018Z,12.68
2019-05-30T11:35:15.900Z,12.70
2019-05-30T11:37:43.021Z,12.64
2019-05-30T11:40:09.840Z,12.65
2019-05-30T11:42:36.793Z,12.62
2019-05-30T11:45:06.877Z,12.60
2019-05-30T11:47:33.773Z,12.67
2019-05-30T11:50:00.497Z,12.66
2019-05-30T11:52:26.980Z,12.76
2019-05-30T11:54:54.176Z,12.81
2019-05-30T11:57:21.104Z,12.79
2019-05-30T11:59:47.681Z,12.78
2019-05-30T12:02:14.675Z,12.84
2019-05-30T12:04:42.172Z,12.93
2019-05-30T12:07:09.356Z,12.90
2019-05-30T12:09:41.863Z,12.82
2019-05-30T12:12:08.688Z,12.80
2019-05-30T12:14:35.619Z,12.72
2019-05-30T12:17:02.355Z,12.69
2019-05-30T12:19:29.143Z,12.64
2019-05-30T12:21:55.878Z,12.55
2019-05-30T12:24:22.656Z,12.45
2019-05-30T12:26:49.403Z,12.41
2019-05-30T12:29:16.334Z,12.49
2019-05-30T12:31:42.952Z,12.51
2019-05-30T12:34:09.524Z,12.52
2019-05-30T12:36:36.516Z,12.50
2019-05-30T12:39:05.588Z,12.40
2019-05-30T12:41:32.354Z,12.40
2019-05-30T12:43:59.178Z,12.35
2019-05-30T12:46:25.977Z,12.20
2019-05-30T12:48:53.282Z,12.14
2019-05-30T12:51:20.118Z,12.11
2019-05-30T12:53:46.737Z,12.08
2019-05-30T12:56:13.473Z,12.12
2019-05-30T12:58:40.081Z,12.13
2019-05-30T13:01:07.059Z,12.15
2019-05-30T13:03:34.125Z,12.08
2019-05-30T13:06:01.215Z,12.08
2019-05-30T13:08:27.866Z,12.02
2019-05-30T13:10:55.539Z,11.99
2019-05-30T13:13:22.471Z,11.95
2019-05-30T13:15:49.084Z,11.98
2019-05-30T13:18:15.989Z,11.90
2019-05-30T13:20:42.775Z,11.85
2019-05-30T13:23:09.413Z,11.82
2019-05-30T13:25:35.967Z,11.87
2019-05-30T13:28:06.277Z,11.84
2019-05-30T13:30:32.188Z,11.86
2019-05-30T13:32:58.804Z,11.93
2019-05-30T13:35:25.846Z,11.99
2019-05-30T13:37:52.659Z,12.01
2019-05-30T13:40:25.387Z,12.09
2019-05-30T13:42:48.798Z,12.16
2019-05-30T13:45:16.313Z,12.17
2019-05-30T13:47:43.017Z,12.25
2019-05-30T13:50:14.019Z,12.24
2019-05-30T13:52:41.197Z,12.14
2019-05-30T13:55:10.198Z,12.19
2019-05-30T13:57:37.371Z,12.23
2019-05-30T14:00:08.608Z,11.93
2019-05-30T14:02:35.405Z,11.98
2019-05-30T14:05:06.332Z,11.89
2019-05-30T14:07:32.901Z,11.77
2019-05-30T14:10:00.273Z,11.74
2019-05-30T14:12:27.054Z,11.61
2019-05-30T14:14:53.693Z,11.57
2019-05-30T14:17:20.215Z,11.55
2019-05-30T14:19:46.879Z,11.52
2019-05-30T14:22:13.404Z,11.56
2019-05-30T14:24:39.959Z,11.58
2019-05-30T14:27:07.634Z,11.57
2019-05-30T14:29:34.502Z,11.54
2019-05-30T14:32:02.301Z,11.53
2019-05-30T14:34:29.149Z,11.58
2019-05-30T14:36:55.833Z,11.61
2019-05-30T14:39:22.315Z,11.64
2019-05-30T14:41:48.979Z,11.59
2019-05-30T14:44:15.621Z,11.61
2019-05-30T14:46:42.431Z,11.55
2019-05-30T14:49:09.139Z,11.55
2019-05-30T14:51:35.881Z,11.62
2019-05-30T14:54:02.481Z,11.65
2019-05-30T14:56:29.278Z,11.69
2019-05-30T14:58:55.911Z,11.58
2019-05-30T15:01:22.523Z,11.65
2019-05-30T15:03:49.202Z,11.59
2019-05-30T15:06:17.943Z,11.56
2019-05-30T15:08:45.026Z,11.61
2019-05-30T15:11:11.816Z,11.54
2019-05-30T15:13:38.796Z,11.58
2019-05-30T15:16:06.696Z,11.62
2019-05-30T15:18:33.486Z,11.68
2019-05-30T15:21:00.074Z,11.66
2019-05-30T15:23:26.679Z,11.62
2019-05-30T15:25:53.404Z,11.53
2019-05-30T15:28:19.927Z,11.47
2019-05-30T15:30:46.436Z,11.42
2019-05-30T15:33:14.430Z,11.31
2019-05-30T15:35:41.273Z,11.34
2019-05-30T15:38:08.765Z,11.32
2019-05-30T15:40:35.530Z,11.24
2019-05-30T15:43:02.309Z,11.23
2019-05-30T15:45:29.373Z,11.20
2019-05-30T15:47:56.148Z,11.18
2019-05-30T15:50:23.085Z,11.19
2019-05-30T15:52:50.066Z,11.20
2019-05-30T15:55:17.459Z,11.20
2019-05-30T15:57:44.594Z,11.20
2019-05-30T16:00:14.052Z,11.21
2019-05-30T16:02:41.339Z,11.22
2019-05-30T16:05:08.664Z,11.21
2019-05-30T16:07:36.836Z,11.28
2019-05-30T16:10:06.011Z,11.33
2019-05-30T16:12:32.866Z,11.38
2019-05-30T16:18:43.957Z,11.31
2019-05-30T16:21:56.025Z,11.25
2019-05-30T16:24:42.325Z,11.31
2019-05-30T16:27:09.199Z,11.24
2019-05-30T16:29:36.005Z,11.31
2019-05-30T16:32:34.324Z,11.38
2019-05-30T16:35:01.359Z,11.39
2019-05-30T16:37:28.134Z,11.32
2019-05-30T16:40:05.309Z,11.40
2019-05-30T16:42:23.994Z,11.44
2019-05-30T16:44:51.089Z,11.30
2019-05-30T16:47:18.397Z,11.34
2019-05-30T16:49:45.105Z,11.39
2019-05-30T16:52:11.704Z,11.33
2019-05-30T16:54:38.666Z,11.36
2019-05-30T16:57:05.330Z,11.31
2019-05-30T16:59:32.278Z,11.30
2019-05-30T17:01:59.202Z,11.30
2019-05-30T17:04:27.165Z,11.24
2019-05-30T17:06:55.202Z,11.16
2019-05-30T17:09:21.837Z,11.08
2019-05-30T17:11:48.679Z,11.04
2019-05-30T17:14:15.602Z,11.01
2019-05-30T17:16:43.066Z,10.92
2019-05-30T17:19:09.802Z,10.87
2019-05-30T17:21:36.639Z,10.84
2019-05-30T17:24:03.363Z,10.83
2019-05-30T17:26:30.268Z,10.82
2019-05-30T17:28:56.949Z,10.73
2019-05-30T17:31:24.027Z,10.70
2019-05-30T17:33:50.638Z,10.62
2019-05-30T17:36:18.095Z,10.57
2019-05-30T17:38:44.972Z,10.54
2019-05-30T17:41:11.741Z,10.58
2019-05-30T17:43:38.612Z,10.58
2019-05-30T17:46:07.791Z,10.55
2019-05-30T17:48:33.694Z,10.50
2019-05-30T17:51:00.591Z,10.49
2019-05-30T17:53:27.984Z,10.52
2019-05-30T17:55:54.786Z,10.46
2019-05-30T17:58:21.910Z,10.44
2019-05-30T18:00:48.711Z,10.40
2019-05-30T18:03:15.535Z,10.40
2019-05-30T18:05:42.262Z,10.38
2019-05-30T18:08:09.115Z,10.44
2019-05-30T18:10:35.814Z,10.44
2019-05-30T18:13:02.666Z,10.39
2019-05-30T18:15:31.994Z,10.35
2019-05-30T18:17:58.326Z,10.30
2019-05-30T18:20:25.358Z,10.26
2019-05-30T18:22:52.073Z,10.26
2019-05-30T18:25:19.303Z,10.28
2019-05-30T18:27:46.044Z,10.23
2019-05-30T18:30:14.861Z,10.22
2019-05-30T18:32:41.565Z,10.19
2019-05-30T18:35:08.932Z,10.16
2019-05-30T18:37:36.938Z,10.21
2019-05-30T18:40:06.027Z,10.22
2019-05-30T18:42:33.708Z,10.24
2019-05-30T18:45:00.782Z,10.20
2019-05-30T18:47:27.424Z,10.24
2019-05-30T18:49:54.065Z,10.21
2019-05-30T18:52:20.879Z,10.16
2019-05-30T18:54:47.615Z,10.15
2019-05-30T18:57:14.306Z,10.16
2019-05-30T18:59:41.304Z,10.16
2019-05-30T19:02:08.034Z,10.19
2019-05-30T19:04:36.405Z,10.25
2019-05-30T19:07:03.537Z,10.23
2019-05-30T19:09:31.914Z,10.23
2019-05-30T19:11:58.638Z,10.22
2019-05-30T19:14:29.422Z,10.28
2019-05-30T19:16:54.034Z,10.28
2019-05-30T19:19:20.661Z,10.30
2019-05-30T19:21:47.356Z,10.32
2019-05-30T19:24:14.007Z,10.35
2019-05-30T19:26:40.637Z,10.32
2019-05-30T19:29:07.389Z,10.30
2019-05-30T19:31:34.772Z,10.30
2019-05-30T19:34:01.613Z,10.29
2019-05-30T19:36:28.811Z,10.27
2019-05-30T19:38:55.916Z,10.28
2019-05-30T19:41:22.609Z,10.33
2019-05-30T19:43:49.230Z,10.36
2019-05-30T19:46:15.762Z,10.36
2019-05-30T19:48:44.958Z,10.34
2019-05-30T19:51:11.631Z,10.36
2019-05-30T19:53:39.144Z,10.26
2019-05-30T19:56:06.117Z,10.24
2019-05-30T19:58:33.408Z,10.22
2019-05-30T20:01:00.334Z,10.17
2019-05-30T20:03:36.537Z,10.17
2019-05-30T20:05:55.823Z,10.15
2019-05-30T20:08:22.834Z,10.14
2019-05-30T20:10:49.431Z,10.12
2019-05-30T20:13:16.299Z,10.15
2019-05-30T20:15:43.113Z,10.17
2019-05-30T20:18:09.723Z,10.19
2019-05-30T20:20:50.690Z,10.19
2019-05-30T20:23:05.204Z,10.23
2019-05-30T20:25:32.688Z,10.22
2019-05-30T20:27:59.502Z,10.20
2019-05-30T20:30:27.594Z,10.20
2019-05-30T20:32:54.165Z,10.22
2019-05-30T20:35:21.283Z,10.24
2019-05-30T20:37:47.980Z,10.22
2019-05-30T20:40:15.144Z,10.23
2019-05-30T20:42:44.504Z,10.23
2019-05-30T20:45:11.972Z,10.22
2019-05-30T20:47:39.365Z,10.23
2019-05-30T20:50:10.747Z,10.24
2019-05-30T20:52:40.351Z,10.23
2019-05-30T20:55:06.954Z,10.28
2019-05-30T20:57:34.338Z,10.30
2019-05-30T21:00:01.751Z,10.32
2019-05-30T21:02:29.456Z,10.34
2019-05-30T21:04:56.579Z,10.36
2019-05-30T21:07:24.065Z,10.35
2019-05-30T21:09:51.123Z,10.34
2019-05-30T21:12:55.171Z,10.36
2019-05-30T21:15:21.919Z,10.37
2019-05-30T21:17:50.605Z,10.34
2019-05-30T21:20:17.737Z,10.36
2019-05-30T21:22:44.779Z,10.35
2019-05-30T21:25:12.098Z,10.34
2019-05-30T21:27:39.144Z,10.33
2019-05-30T21:30:06.789Z,10.27
2019-05-30T21:32:35.242Z,10.26
2019-05-30T21:35:04.962Z,10.26
2019-05-30T21:37:34.764Z,10.25
2019-05-30T21:40:01.534Z,10.23
2019-05-30T21:42:28.125Z,10.19
2019-05-30T21:44:54.767Z,10.18
2019-05-30T21:47:21.434Z,10.19
2019-05-30T21:49:49.215Z,10.21
2019-05-30T21:52:16.382Z,10.19
2019-05-30T21:54:43.801Z,10.23
2019-05-30T21:57:10.675Z,10.18
2019-05-30T21:59:37.341Z,10.18
2019-05-30T22:02:04.810Z,10.14
2019-05-30T22:04:32.472Z,10.12
2019-05-30T22:06:59.272Z,10.13
2019-05-30T22:09:26.030Z,10.14
2019-05-30T22:11:54.255Z,10.15
2019-05-30T22:14:23.004Z,10.15
2019-05-30T22:16:50.221Z,10.16
2019-05-30T22:19:17.258Z,10.20
2019-05-30T22:21:44.200Z,10.23
2019-05-30T22:24:11.523Z,10.24
2019-05-30T22:26:38.352Z,10.24
2019-05-30T22:29:05.148Z,10.26
2019-05-30T22:31:32.084Z,10.26
2019-05-30T22:33:58.967Z,10.25
2019-05-30T22:36:25.729Z,10.23
2019-05-30T22:38:53.257Z,10.24
2019-05-30T22:41:20.102Z,10.25
2019-05-30T22:43:46.700Z,10.27
2019-05-30T22:46:13.444Z,10.30
2019-05-30T22:48:40.164Z,10.34
2019-05-30T22:51:07.341Z,10.32
2019-05-30T22:53:34.245Z,10.37
2019-05-30T22:56:01.035Z,10.38
2019-05-30T22:58:27.608Z,10.35
2019-05-30T23:00:54.214Z,10.37
2019-05-30T23:03:20.736Z,10.38
2019-05-30T23:05:47.335Z,10.41
2019-05-30T23:08:14.170Z,10.39
2019-05-30T23:10:40.870Z,10.40
2019-05-30T23:13:08.010Z,10.41
2019-05-30T23:15:34.762Z,10.44
2019-05-30T23:18:01.540Z,10.45
2019-05-30T23:20:28.196Z,10.47
2019-05-30T23:22:55.200Z,10.50
2019-05-30T23:25:22.092Z,10.52
2019-05-30T23:27:49.501Z,10.53
2019-05-30T23:30:17.097Z,10.53
2019-05-30T23:32:43.708Z,10.52
2019-05-30T23:35:10.503Z,10.52
2019-05-30T23:37:37.208Z,10.48
2019-05-30T23:40:04.738Z,10.51
2019-05-30T23:42:31.320Z,10.53
2019-05-30T23:44:58.030Z,10.54
2019-05-30T23:47:24.541Z,10.56
2019-05-30T23:49:51.784Z,10.55
2019-05-30T23:52:18.655Z,10.56
2019-05-30T23:54:45.560Z,10.59
2019-05-30T23:57:12.137Z,10.53
2019-05-30T23:59:38.722Z,10.52
